createdAt,value
2019-03-06T00:00:05.183Z,0.00
2019-03-06T00:01:05.171Z,0.00
2019-03-06T00:02:05.207Z,0.00
2019-03-06T00:03:05.155Z,0.00
2019-03-06T00:04:05.140Z,0.00
2019-03-06T00:05:05.132Z,0.00
2019-03-06T00:06:05.119Z,0.00
2019-03-06T00:07:05.137Z,0.00
2019-03-06T00:08:05.101Z,0.00
2019-03-06T00:09:05.093Z,0.00
2019-03-06T00:10:05.079Z,0.00
2019-03-06T00:11:05.070Z,0.00
2019-03-06T00:12:05.087Z,0.00
2019-03-06T00:13:05.050Z,0.00
2019-03-06T00:14:05.042Z,0.00
2019-03-06T00:15:05.025Z,0.00
2019-03-06T00:16:05.018Z,0.00
2019-03-06T00:17:05.027Z,0.00
2019-03-06T00:18:04.996Z,0.00
2019-03-06T00:19:04.988Z,0.00
2019-03-06T00:20:04.981Z,0.00
2019-03-06T00:21:04.971Z,0.00
2019-03-06T00:22:04.975Z,0.00
2019-03-06T00:23:04.944Z,0.00
2019-03-06T00:24:04.931Z,0.00
2019-03-06T00:25:04.922Z,0.00
2019-03-06T00:26:04.912Z,0.00
2019-03-06T00:27:04.922Z,0.00
2019-03-06T00:28:04.892Z,0.00
2019-03-06T00:29:04.880Z,0.00
2019-03-06T00:30:04.867Z,0.00
2019-03-06T00:31:04.865Z,0.00
2019-03-06T00:32:04.876Z,0.00
2019-03-06T00:33:04.847Z,0.00
2019-03-06T00:34:04.829Z,0.00
2019-03-06T00:35:04.818Z,0.00
2019-03-06T00:36:04.803Z,0.00
2019-03-06T00:37:04.825Z,0.00
2019-03-06T00:38:04.790Z,0.00
2019-03-06T00:39:04.775Z,0.00
2019-03-06T00:40:04.767Z,0.00
2019-03-06T00:41:04.757Z,0.00
2019-03-06T00:42:04.772Z,0.00
2019-03-06T00:43:04.733Z,0.00
2019-03-06T00:44:04.726Z,0.00
2019-03-06T00:45:04.716Z,0.00
2019-03-06T00:46:04.699Z,0.00
2019-03-06T00:47:04.721Z,0.00
2019-03-06T00:48:04.684Z,0.00
2019-03-06T00:49:04.675Z,0.00
2019-03-06T00:50:04.662Z,0.00
2019-03-06T00:51:04.654Z,0.00
2019-03-06T00:52:04.660Z,0.00
2019-03-06T00:53:04.629Z,0.00
2019-03-06T00:54:04.621Z,0.00
2019-03-06T00:55:04.613Z,0.00
2019-03-06T00:56:04.596Z,0.00
2019-03-06T00:57:04.620Z,0.00
2019-03-06T00:58:04.585Z,0.00
2019-03-06T00:59:04.566Z,0.00
2019-03-06T01:00:04.580Z,0.00
2019-03-06T01:01:04.544Z,0.00
2019-03-06T01:02:04.559Z,0.00
2019-03-06T01:03:04.524Z,0.00
2019-03-06T01:04:04.518Z,0.00
2019-03-06T01:05:04.499Z,0.00
2019-03-06T01:06:04.496Z,0.00
2019-03-06T01:07:04.510Z,0.00
2019-03-06T01:08:04.473Z,0.00
2019-03-06T01:09:04.466Z,0.00
2019-03-06T01:10:04.451Z,0.00
2019-03-06T01:11:04.436Z,0.00
2019-03-06T01:12:04.452Z,0.00
2019-03-06T01:13:04.415Z,0.00
2019-03-06T01:14:04.407Z,0.00
2019-03-06T01:15:04.403Z,0.00
2019-03-06T01:16:04.385Z,0.00
2019-03-06T01:17:04.401Z,0.00
2019-03-06T01:18:04.364Z,0.00
2019-03-06T01:19:04.356Z,0.00
2019-03-06T01:20:04.343Z,0.00
2019-03-06T01:21:04.337Z,0.00
2019-03-06T01:22:04.352Z,0.00
2019-03-06T01:23:04.312Z,0.00
2019-03-06T01:24:04.309Z,0.00
2019-03-06T01:25:04.292Z,0.00
2019-03-06T01:26:04.281Z,0.00
2019-03-06T01:27:04.297Z,0.00
2019-03-06T01:28:04.259Z,0.00
2019-03-06T01:29:04.248Z,0.00
2019-03-06T01:30:04.239Z,0.00
2019-03-06T01:31:04.228Z,0.00
2019-03-06T01:32:04.216Z,0.00
2019-03-06T01:33:04.248Z,0.00
2019-03-06T01:34:04.196Z,0.00
2019-03-06T01:35:04.188Z,0.00
2019-03-06T01:36:04.195Z,0.00
2019-03-06T01:37:04.163Z,0.00
2019-03-06T01:38:04.180Z,0.00
2019-03-06T01:39:04.146Z,0.00
2019-03-06T01:40:04.136Z,0.00
2019-03-06T01:41:04.125Z,0.00
2019-03-06T01:42:04.117Z,0.00
2019-03-06T01:43:04.133Z,0.00
2019-03-06T01:44:04.096Z,0.00
2019-03-06T01:45:04.084Z,0.00
2019-03-06T01:46:04.071Z,0.00
2019-03-06T01:47:04.067Z,0.00
2019-03-06T01:48:04.078Z,0.00
2019-03-06T01:49:04.043Z,0.00
2019-03-06T01:50:04.030Z,0.00
2019-03-06T01:51:04.019Z,0.00
2019-03-06T01:52:04.012Z,0.00
2019-03-06T01:53:04.027Z,0.00
2019-03-06T01:54:03.990Z,0.00
2019-03-06T01:55:03.975Z,0.00
2019-03-06T01:56:03.968Z,0.00
2019-03-06T01:57:03.960Z,0.00
2019-03-06T01:58:03.970Z,0.00
2019-03-06T01:59:03.941Z,0.00
2019-03-06T02:00:03.930Z,0.00
2019-03-06T02:01:03.916Z,0.00
2019-03-06T02:02:03.910Z,0.00
2019-03-06T02:03:03.925Z,0.00
2019-03-06T02:04:03.886Z,0.00
2019-03-06T02:05:03.872Z,0.00
2019-03-06T02:06:03.888Z,0.00
2019-03-06T02:07:03.855Z,0.00
2019-03-06T02:08:03.857Z,0.00
2019-03-06T02:09:03.832Z,0.00
2019-03-06T02:10:03.819Z,0.00
2019-03-06T02:11:03.808Z,0.00
2019-03-06T02:12:03.800Z,0.00
2019-03-06T02:13:03.813Z,0.00
2019-03-06T02:14:03.779Z,0.00
2019-03-06T02:15:03.767Z,0.00
2019-03-06T02:16:03.756Z,0.00
2019-03-06T02:17:03.753Z,0.00
2019-03-06T02:18:03.763Z,0.00
2019-03-06T02:19:03.729Z,0.00
2019-03-06T02:20:03.719Z,0.00
2019-03-06T02:21:03.708Z,0.00
2019-03-06T02:22:03.709Z,0.00
2019-03-06T02:23:03.713Z,0.00
2019-03-06T02:24:03.679Z,0.00
2019-03-06T02:25:03.670Z,0.00
2019-03-06T02:26:03.653Z,0.00
2019-03-06T02:27:03.650Z,0.00
2019-03-06T02:28:03.656Z,0.00
2019-03-06T02:29:03.624Z,0.00
2019-03-06T02:30:03.617Z,0.00
2019-03-06T02:31:03.630Z,0.00
2019-03-06T02:32:03.592Z,0.00
2019-03-06T02:33:03.616Z,0.00
2019-03-06T02:34:03.576Z,0.00
2019-03-06T02:35:03.567Z,0.00
2019-03-06T02:36:03.554Z,0.00
2019-03-06T02:37:03.538Z,0.00
2019-03-06T02:38:03.556Z,0.00
2019-03-06T02:39:03.544Z,0.00
2019-03-06T02:40:03.509Z,0.00
2019-03-06T02:41:03.501Z,0.00
2019-03-06T02:42:03.490Z,0.00
2019-03-06T02:43:03.505Z,0.00
2019-03-06T02:44:03.472Z,0.00
2019-03-06T02:45:03.457Z,0.00
2019-03-06T02:46:03.462Z,0.00
2019-03-06T02:47:03.435Z,0.00
2019-03-06T02:48:03.451Z,0.00
2019-03-06T02:49:03.416Z,0.00
2019-03-06T02:50:03.406Z,0.00
2019-03-06T02:51:03.397Z,0.00
2019-03-06T02:52:03.381Z,0.00
2019-03-06T02:53:03.448Z,0.00
2019-03-06T02:54:03.363Z,0.00
2019-03-06T02:55:03.354Z,0.00
2019-03-06T02:56:03.362Z,0.00
2019-03-06T02:57:03.333Z,0.00
2019-03-06T02:58:03.357Z,0.00
2019-03-06T02:59:03.309Z,0.00
2019-03-06T03:00:03.296Z,0.00
2019-03-06T03:01:03.289Z,0.00
2019-03-06T03:02:03.277Z,0.00
2019-03-06T03:03:03.293Z,0.00
2019-03-06T03:04:03.257Z,0.00
2019-03-06T03:05:03.250Z,0.00
2019-03-06T03:06:03.241Z,0.00
2019-03-06T03:07:03.229Z,0.00
2019-03-06T03:08:03.242Z,0.00
2019-03-06T03:09:03.201Z,0.00
2019-03-06T03:10:03.217Z,0.00
2019-03-06T03:11:03.192Z,0.00
2019-03-06T03:12:03.171Z,0.00
2019-03-06T03:13:03.222Z,0.00
2019-03-06T03:14:03.161Z,0.00
2019-03-06T03:15:03.138Z,0.00
2019-03-06T03:16:03.148Z,0.00
2019-03-06T03:17:03.125Z,0.00
2019-03-06T03:18:03.106Z,0.00
2019-03-06T03:19:03.120Z,0.00
2019-03-06T03:20:03.086Z,0.00
2019-03-06T03:21:03.078Z,0.00
2019-03-06T03:22:03.065Z,0.00
2019-03-06T03:23:03.053Z,0.00
2019-03-06T03:24:03.072Z,0.00
2019-03-06T03:25:03.034Z,0.00
2019-03-06T03:26:03.035Z,0.00
2019-03-06T03:27:03.010Z,0.00
2019-03-06T03:28:03.009Z,0.00
2019-03-06T03:29:03.014Z,0.00
2019-03-06T03:30:03.006Z,0.00
2019-03-06T03:31:02.986Z,0.00
2019-03-06T03:32:03.006Z,0.00
2019-03-06T03:33:02.948Z,0.00
2019-03-06T03:34:02.964Z,0.00
2019-03-06T03:35:02.929Z,0.00
2019-03-06T03:36:02.919Z,0.00
2019-03-06T03:37:02.909Z,0.00
2019-03-06T03:38:02.893Z,0.00
2019-03-06T03:39:02.907Z,0.00
2019-03-06T03:40:02.873Z,0.00
2019-03-06T03:41:02.867Z,0.00
2019-03-06T03:42:02.850Z,0.00
2019-03-06T03:43:02.844Z,0.00
2019-03-06T03:44:02.853Z,0.00
2019-03-06T03:45:02.851Z,0.00
2019-03-06T03:46:02.810Z,0.00
2019-03-06T03:47:02.810Z,0.00
2019-03-06T03:48:02.793Z,0.00
2019-03-06T03:49:02.802Z,0.00
2019-03-06T03:50:02.765Z,0.00
2019-03-06T03:51:02.759Z,0.00
2019-03-06T03:52:02.740Z,0.00
2019-03-06T03:53:02.729Z,0.00
2019-03-06T03:54:02.749Z,0.00
2019-03-06T03:55:02.709Z,0.00
2019-03-06T03:56:02.731Z,0.00
2019-03-06T03:57:02.703Z,0.00
2019-03-06T03:58:02.679Z,0.00
2019-03-06T03:59:02.694Z,0.00
2019-03-06T04:00:02.664Z,0.00
2019-03-06T04:01:02.648Z,0.00
2019-03-06T04:02:02.640Z,0.00
2019-03-06T04:03:02.645Z,0.00
2019-03-06T04:04:02.656Z,0.00
2019-03-06T04:05:02.610Z,0.00
2019-03-06T04:06:02.600Z,0.00
2019-03-06T04:07:02.613Z,0.00
2019-03-06T04:08:02.574Z,0.00
2019-03-06T04:09:02.588Z,0.00
2019-03-06T04:10:02.555Z,0.00
2019-03-06T04:11:02.545Z,0.00
2019-03-06T04:12:02.551Z,0.00
2019-03-06T04:13:02.516Z,0.00
2019-03-06T04:14:02.538Z,0.00
2019-03-06T04:15:02.507Z,0.00
2019-03-06T04:16:02.486Z,0.00
2019-03-06T04:17:02.492Z,0.00
2019-03-06T04:18:02.483Z,0.00
2019-03-06T04:19:02.493Z,0.00
2019-03-06T04:20:02.459Z,0.00
2019-03-06T04:21:02.437Z,0.00
2019-03-06T04:22:02.427Z,0.00
2019-03-06T04:23:02.419Z,0.00
2019-03-06T04:24:02.438Z,0.00
2019-03-06T04:25:02.387Z,0.00
2019-03-06T04:26:02.383Z,0.00
2019-03-06T04:27:02.371Z,0.00
2019-03-06T04:28:02.365Z,0.00
2019-03-06T04:29:02.377Z,0.00
2019-03-06T04:30:02.339Z,0.00
2019-03-06T04:31:02.331Z,0.00
2019-03-06T04:32:02.332Z,0.00
2019-03-06T04:33:02.313Z,0.00
2019-03-06T04:34:02.320Z,0.00
2019-03-06T04:35:02.304Z,0.00
2019-03-06T04:36:02.273Z,0.00
2019-03-06T04:37:02.268Z,0.00
2019-03-06T04:38:02.259Z,0.00
2019-03-06T04:39:02.271Z,0.00
2019-03-06T04:40:02.246Z,0.00
2019-03-06T04:41:02.239Z,0.00
2019-03-06T04:42:02.214Z,0.00
2019-03-06T04:43:02.202Z,0.00
2019-03-06T04:44:02.221Z,0.00
2019-03-06T04:45:02.182Z,0.00
2019-03-06T04:46:02.182Z,0.00
2019-03-06T04:47:02.180Z,0.00
2019-03-06T04:48:02.144Z,0.00
2019-03-06T04:49:02.161Z,0.00
2019-03-06T04:50:02.129Z,0.00
2019-03-06T04:51:02.125Z,0.00
2019-03-06T04:52:02.112Z,0.00
2019-03-06T04:53:02.096Z,0.00
2019-03-06T04:54:02.141Z,0.00
2019-03-06T04:55:02.106Z,0.00
2019-03-06T04:56:02.069Z,0.00
2019-03-06T04:57:02.052Z,0.00
2019-03-06T04:58:02.046Z,0.00
2019-03-06T04:59:02.035Z,0.00
2019-03-06T05:00:02.044Z,0.00
2019-03-06T05:01:02.012Z,0.00
2019-03-06T05:02:02.000Z,0.00
2019-03-06T05:03:01.989Z,0.00
2019-03-06T05:05:00.075Z,0.00
2019-03-06T05:06:00.044Z,0.00
2019-03-06T05:07:00.031Z,0.00
2019-03-06T05:08:00.023Z,0.00
2019-03-06T05:09:00.011Z,0.00
2019-03-06T05:10:00.026Z,0.00
2019-03-06T05:10:59.996Z,0.00
2019-03-06T05:11:59.987Z,0.00
2019-03-06T05:12:59.970Z,0.00
2019-03-06T05:13:59.960Z,0.00
2019-03-06T05:14:59.978Z,0.00
2019-03-06T05:15:59.935Z,0.00
2019-03-06T05:16:59.926Z,0.00
2019-03-06T05:17:59.921Z,0.00
2019-03-06T05:18:59.905Z,0.00
2019-03-06T05:19:59.922Z,0.00
2019-03-06T05:20:59.883Z,0.00
2019-03-06T05:21:59.872Z,0.00
2019-03-06T05:22:59.867Z,0.00
2019-03-06T05:23:59.858Z,0.00
2019-03-06T05:24:59.869Z,0.00
2019-03-06T05:25:59.832Z,0.00
2019-03-06T05:26:59.828Z,0.00
2019-03-06T05:27:59.811Z,0.00
2019-03-06T05:28:59.850Z,0.00
2019-03-06T05:29:59.825Z,0.00
2019-03-06T05:30:59.786Z,0.00
2019-03-06T05:31:59.767Z,0.00
2019-03-06T05:32:59.756Z,0.00
2019-03-06T05:33:59.745Z,0.00
2019-03-06T05:34:59.762Z,0.00
2019-03-06T05:35:59.751Z,0.00
2019-03-06T05:36:59.713Z,0.00
2019-03-06T05:37:59.700Z,0.00
2019-03-06T05:38:59.698Z,0.00
2019-03-06T05:39:59.703Z,0.00
2019-03-06T05:40:59.667Z,0.00
2019-03-06T05:41:59.660Z,0.00
2019-03-06T05:42:59.647Z,0.00
2019-03-06T05:43:59.643Z,0.00
2019-03-06T05:44:59.655Z,0.00
2019-03-06T05:45:59.620Z,0.00
2019-03-06T05:46:59.604Z,0.00
2019-03-06T05:47:59.595Z,0.00
2019-03-06T05:48:59.583Z,0.00
2019-03-06T05:49:59.641Z,0.00
2019-03-06T05:50:59.563Z,0.00
2019-03-06T05:51:59.554Z,0.00
2019-03-06T05:52:59.544Z,0.00
2019-03-06T05:53:59.533Z,0.00
2019-03-06T05:54:59.544Z,0.00
2019-03-06T05:55:59.507Z,0.00
2019-03-06T05:56:59.511Z,0.00
2019-03-06T05:57:59.492Z,5.62
2019-03-06T05:58:59.478Z,5.62
2019-03-06T05:59:59.493Z,5.62
2019-03-06T06:00:59.454Z,5.62
2019-03-06T06:01:59.445Z,5.62
2019-03-06T06:02:59.435Z,5.62
2019-03-06T06:03:59.423Z,11.25
2019-03-06T06:04:59.440Z,11.25
2019-03-06T06:05:59.406Z,11.25
2019-03-06T06:06:59.395Z,11.25
2019-03-06T06:07:59.379Z,11.25
2019-03-06T06:08:59.368Z,16.88
2019-03-06T06:09:59.398Z,16.88
2019-03-06T06:10:59.348Z,22.50
2019-03-06T06:11:59.336Z,22.50
2019-03-06T06:12:59.328Z,22.50
2019-03-06T06:13:59.316Z,28.12
2019-03-06T06:14:59.326Z,28.12
2019-03-06T06:15:59.297Z,28.12
2019-03-06T06:16:59.282Z,33.75
2019-03-06T06:17:59.275Z,33.75
2019-03-06T06:18:59.277Z,33.75
2019-03-06T06:19:59.275Z,39.38
2019-03-06T06:20:59.252Z,39.38
2019-03-06T06:21:59.235Z,45.00
2019-03-06T06:22:59.219Z,45.00
2019-03-06T06:23:59.208Z,50.62
2019-03-06T06:24:59.232Z,50.62
2019-03-06T06:25:59.209Z,56.25
2019-03-06T06:26:59.180Z,61.88
2019-03-06T06:27:59.170Z,61.88
2019-03-06T06:28:59.155Z,67.50
2019-03-06T06:29:59.175Z,73.12
2019-03-06T06:30:59.142Z,73.12
2019-03-06T06:31:59.125Z,78.75
2019-03-06T06:32:59.122Z,78.75
2019-03-06T06:33:59.114Z,78.75
2019-03-06T06:34:59.095Z,84.38
2019-03-06T06:35:59.122Z,84.38
2019-03-06T06:36:59.084Z,84.38
2019-03-06T06:37:59.064Z,90.00
2019-03-06T06:38:59.051Z,90.00
2019-03-06T06:39:59.039Z,95.62
2019-03-06T06:40:59.057Z,95.62
2019-03-06T06:41:59.020Z,101.25
2019-03-06T06:42:59.019Z,101.25
2019-03-06T06:43:59.042Z,106.88
2019-03-06T06:44:58.992Z,112.50
2019-03-06T06:45:59.016Z,118.12
2019-03-06T06:46:58.972Z,123.75
2019-03-06T06:47:58.973Z,129.38
2019-03-06T06:48:58.947Z,135.00
2019-03-06T06:49:58.942Z,140.62
2019-03-06T06:51:02.270Z,140.62
2019-03-06T06:51:58.917Z,146.25
2019-03-06T06:52:58.903Z,151.88
2019-03-06T06:53:58.892Z,151.88
2019-03-06T06:54:58.886Z,151.88
2019-03-06T06:55:58.896Z,157.50
2019-03-06T06:56:58.864Z,157.50
2019-03-06T06:57:58.915Z,157.50
2019-03-06T06:58:58.845Z,157.50
2019-03-06T06:59:58.835Z,157.50
2019-03-06T07:00:58.861Z,157.50
2019-03-06T07:01:58.812Z,163.12
2019-03-06T07:02:58.803Z,163.12
2019-03-06T07:03:58.794Z,168.75
2019-03-06T07:04:58.781Z,168.75
2019-03-06T07:05:58.793Z,174.38
2019-03-06T07:06:58.760Z,180.00
2019-03-06T07:07:58.753Z,191.25
2019-03-06T07:08:58.738Z,196.88
2019-03-06T07:09:58.738Z,208.12
2019-03-06T07:10:58.799Z,219.38
2019-03-06T07:11:58.704Z,230.62
2019-03-06T07:12:58.709Z,236.25
2019-03-06T07:13:58.703Z,247.50
2019-03-06T07:14:58.812Z,258.75
2019-03-06T07:15:58.693Z,270.00
2019-03-06T07:16:58.648Z,275.62
2019-03-06T07:17:58.639Z,281.25
2019-03-06T07:18:58.628Z,281.25
2019-03-06T07:19:58.618Z,286.88
2019-03-06T07:20:58.633Z,292.50
2019-03-06T07:21:58.602Z,292.50
2019-03-06T07:22:58.590Z,292.50
2019-03-06T07:23:58.577Z,292.50
2019-03-06T07:24:58.565Z,292.50
2019-03-06T07:25:58.576Z,292.50
2019-03-06T07:26:58.545Z,298.12
2019-03-06T07:27:58.531Z,303.75
2019-03-06T07:28:58.522Z,303.75
2019-03-06T07:29:58.512Z,309.38
2019-03-06T07:30:58.524Z,315.00
2019-03-06T07:31:58.495Z,320.62
2019-03-06T07:32:58.479Z,331.88
2019-03-06T07:33:58.470Z,337.50
2019-03-06T07:34:58.460Z,348.75
2019-03-06T07:35:58.474Z,354.38
2019-03-06T07:36:58.439Z,365.62
2019-03-06T07:37:58.427Z,382.50
2019-03-06T07:38:58.414Z,382.50
2019-03-06T07:39:58.406Z,388.12
2019-03-06T07:40:58.422Z,393.75
2019-03-06T07:41:58.390Z,405.00
2019-03-06T07:42:58.399Z,410.62
2019-03-06T07:43:58.359Z,416.25
2019-03-06T07:44:58.351Z,427.50
2019-03-06T07:45:58.366Z,433.12
2019-03-06T07:46:58.330Z,438.75
2019-03-06T07:47:58.316Z,444.38
2019-03-06T07:48:58.309Z,450.00
2019-03-06T07:49:58.296Z,450.00
2019-03-06T07:50:58.311Z,450.00
2019-03-06T07:51:58.275Z,450.00
2019-03-06T07:52:58.268Z,444.38
2019-03-06T07:53:58.256Z,444.38
2019-03-06T07:54:58.254Z,444.38
2019-03-06T07:55:58.270Z,444.38
2019-03-06T07:56:59.323Z,450.00
2019-03-06T07:57:58.219Z,455.62
2019-03-06T07:58:58.205Z,461.25
2019-03-06T07:59:58.196Z,472.50
2019-03-06T08:00:58.235Z,483.75
2019-03-06T08:01:58.171Z,495.00
2019-03-06T08:02:58.165Z,500.62
2019-03-06T08:03:58.153Z,506.25
2019-03-06T08:04:58.139Z,506.25
2019-03-06T08:05:58.162Z,506.25
2019-03-06T08:06:58.125Z,500.62
2019-03-06T08:07:58.109Z,506.25
2019-03-06T08:08:58.098Z,506.25
2019-03-06T08:09:58.083Z,506.25
2019-03-06T08:10:58.121Z,511.88
2019-03-06T08:11:58.067Z,511.88
2019-03-06T08:12:58.059Z,523.12
2019-03-06T08:13:58.048Z,528.75
2019-03-06T08:14:58.027Z,540.00
2019-03-06T08:15:58.019Z,551.25
2019-03-06T08:16:58.035Z,556.88
2019-03-06T08:17:58.001Z,562.50
2019-03-06T08:18:57.984Z,585.00
2019-03-06T08:19:57.982Z,607.50
2019-03-06T08:20:57.972Z,601.88
2019-03-06T08:21:57.982Z,601.88
2019-03-06T08:22:57.943Z,590.62
2019-03-06T08:23:57.934Z,590.62
2019-03-06T08:24:57.926Z,579.38
2019-03-06T08:25:57.911Z,568.12
2019-03-06T08:26:57.947Z,568.12
2019-03-06T08:27:57.887Z,562.50
2019-03-06T08:28:57.895Z,556.88
2019-03-06T08:29:57.871Z,556.88
2019-03-06T08:30:57.859Z,545.62
2019-03-06T08:31:57.965Z,545.62
2019-03-06T08:32:57.840Z,540.00
2019-03-06T08:33:57.825Z,528.75
2019-03-06T08:34:57.815Z,511.88
2019-03-06T08:35:57.804Z,500.62
2019-03-06T08:36:57.822Z,483.75
2019-03-06T08:37:57.780Z,472.50
2019-03-06T08:38:57.773Z,461.25
2019-03-06T08:39:57.758Z,455.62
2019-03-06T08:41:04.242Z,455.62
2019-03-06T08:41:58.771Z,466.88
2019-03-06T08:42:57.723Z,483.75
2019-03-06T08:43:57.719Z,495.00
2019-03-06T08:44:57.703Z,523.12
2019-03-06T08:45:57.696Z,551.25
2019-03-06T08:46:57.703Z,573.75
2019-03-06T08:47:57.671Z,601.88
2019-03-06T08:48:57.667Z,624.38
2019-03-06T08:49:57.648Z,646.88
2019-03-06T08:50:57.640Z,669.38
2019-03-06T08:51:57.653Z,686.25
2019-03-06T08:52:58.843Z,691.88
2019-03-06T08:53:57.603Z,714.38
2019-03-06T08:54:57.598Z,714.38
2019-03-06T08:55:57.585Z,731.25
2019-03-06T08:56:57.599Z,748.12
2019-03-06T08:57:57.568Z,787.50
2019-03-06T08:58:57.555Z,798.75
2019-03-06T08:59:57.539Z,798.75
2019-03-06T09:00:57.532Z,793.12
2019-03-06T09:02:00.974Z,804.38
2019-03-06T09:02:57.509Z,787.50
2019-03-06T09:03:57.510Z,787.50
2019-03-06T09:04:57.490Z,798.75
2019-03-06T09:05:57.479Z,832.50
2019-03-06T09:06:57.495Z,804.38
2019-03-06T09:07:57.461Z,798.75
2019-03-06T09:08:57.453Z,821.25
2019-03-06T09:09:57.436Z,781.88
2019-03-06T09:11:02.894Z,787.50
2019-03-06T09:11:58.441Z,765.00
2019-03-06T09:12:57.407Z,725.62
2019-03-06T09:13:57.393Z,675.00
2019-03-06T09:14:57.392Z,663.75
2019-03-06T09:15:57.374Z,669.38
2019-03-06T09:16:57.390Z,703.12
2019-03-06T09:17:57.351Z,708.75
2019-03-06T09:18:57.340Z,720.00
2019-03-06T09:19:57.333Z,742.50
2019-03-06T09:20:57.327Z,770.62
2019-03-06T09:21:57.341Z,793.12
2019-03-06T09:22:57.300Z,815.62
2019-03-06T09:23:57.287Z,855.00
2019-03-06T09:24:57.290Z,871.88
2019-03-06T09:25:57.267Z,883.12
2019-03-06T09:26:57.285Z,883.12
2019-03-06T09:27:57.243Z,883.12
2019-03-06T09:29:00.978Z,877.50
2019-03-06T09:29:57.224Z,894.38
2019-03-06T09:30:57.215Z,928.12
2019-03-06T09:31:57.229Z,961.88
2019-03-06T09:32:57.204Z,990.00
2019-03-06T09:33:57.184Z,1029.38
2019-03-06T09:34:57.178Z,1040.62
2019-03-06T09:35:57.163Z,1023.75
2019-03-06T09:36:57.175Z,978.75
2019-03-06T09:37:57.136Z,911.25
2019-03-06T09:38:57.142Z,866.25
2019-03-06T09:39:57.120Z,838.12
2019-03-06T09:40:57.107Z,815.62
2019-03-06T09:41:57.148Z,793.12
2019-03-06T09:42:57.087Z,798.75
2019-03-06T09:43:57.081Z,815.62
2019-03-06T09:44:57.069Z,843.75
2019-03-06T09:45:57.056Z,855.00
2019-03-06T09:46:57.073Z,866.25
2019-03-06T09:47:57.039Z,855.00
2019-03-06T09:48:57.028Z,838.12
2019-03-06T09:49:57.013Z,855.00
2019-03-06T09:50:57.007Z,866.25
2019-03-06T09:51:56.989Z,871.88
2019-03-06T09:52:57.007Z,888.75
2019-03-06T09:53:56.976Z,1035.00
2019-03-06T09:54:56.958Z,1299.38
2019-03-06T09:55:56.957Z,1186.88
2019-03-06T09:56:56.935Z,984.38
2019-03-06T09:57:56.955Z,1068.75
2019-03-06T09:58:56.922Z,1040.62
2019-03-06T09:59:56.907Z,1288.12
2019-03-06T10:00:56.892Z,1215.00
2019-03-06T10:02:06.313Z,1271.25
2019-03-06T10:02:57.899Z,1175.62
2019-03-06T10:03:56.860Z,1068.75
2019-03-06T10:04:56.857Z,1023.75
2019-03-06T10:05:56.846Z,911.25
2019-03-06T10:06:56.831Z,933.75
2019-03-06T10:07:56.862Z,933.75
2019-03-06T10:08:56.811Z,1023.75
2019-03-06T10:09:59.384Z,1248.75
2019-03-06T10:10:57.778Z,1490.62
2019-03-06T10:11:56.777Z,1580.62
2019-03-06T10:12:56.795Z,1462.50
2019-03-06T10:13:56.768Z,1063.12
2019-03-06T10:14:56.748Z,1001.25
2019-03-06T10:15:56.744Z,978.75
2019-03-06T10:16:56.736Z,995.62
2019-03-06T10:17:56.755Z,1001.25
2019-03-06T10:18:56.707Z,995.62
2019-03-06T10:19:56.704Z,1001.25
2019-03-06T10:20:56.683Z,1057.50
2019-03-06T10:21:59.217Z,1023.75
2019-03-06T10:22:59.535Z,1063.12
2019-03-06T10:23:56.652Z,1130.62
2019-03-06T10:24:56.648Z,1164.38
2019-03-06T10:25:56.645Z,1170.00
2019-03-06T10:26:56.624Z,1209.38
2019-03-06T10:28:05.734Z,1243.12
2019-03-06T10:28:57.599Z,1130.62
2019-03-06T10:29:56.596Z,1063.12
2019-03-06T10:31:02.482Z,1051.88
2019-03-06T10:31:57.570Z,1125.00
2019-03-06T10:32:56.593Z,1125.00
2019-03-06T10:33:56.557Z,1102.50
2019-03-06T10:34:56.539Z,1136.25
2019-03-06T10:35:56.551Z,1119.38
2019-03-06T10:36:56.520Z,1192.50
2019-03-06T10:37:56.534Z,1226.25
2019-03-06T10:38:56.495Z,1299.38
2019-03-06T10:39:56.488Z,1226.25
2019-03-06T10:40:56.472Z,1378.12
2019-03-06T10:41:56.465Z,1423.12
2019-03-06T10:42:56.483Z,1473.75
2019-03-06T10:43:56.440Z,1445.62
2019-03-06T10:44:56.431Z,1456.88
2019-03-06T10:45:56.422Z,1327.50
2019-03-06T10:46:56.409Z,1350.00
2019-03-06T10:47:56.420Z,1462.50
2019-03-06T10:48:56.389Z,1518.75
2019-03-06T10:49:56.373Z,1569.38
2019-03-06T10:50:56.374Z,1659.38
2019-03-06T10:51:56.357Z,1777.50
2019-03-06T10:52:56.373Z,1946.25
2019-03-06T10:53:56.332Z,2115.00
2019-03-06T10:54:57.678Z,2154.38
2019-03-06T10:55:56.314Z,2070.00
2019-03-06T10:56:56.300Z,1822.50
2019-03-06T10:57:56.316Z,1822.50
2019-03-06T10:58:56.279Z,1873.12
2019-03-06T10:59:56.267Z,1839.38
2019-03-06T11:00:56.268Z,1878.75
2019-03-06T11:01:56.251Z,1839.38
2019-03-06T11:02:56.964Z,1760.62
2019-03-06T11:03:56.230Z,1468.12
2019-03-06T11:05:07.112Z,1918.12
2019-03-06T11:05:56.204Z,2064.38
2019-03-06T11:06:56.197Z,2070.00
2019-03-06T11:07:56.208Z,2154.38
2019-03-06T11:08:56.180Z,2148.75
2019-03-06T11:09:56.171Z,2171.25
2019-03-06T11:10:56.153Z,2176.88
2019-03-06T11:11:56.140Z,2233.12
2019-03-06T11:12:56.159Z,2227.50
2019-03-06T11:13:56.128Z,2205.00
2019-03-06T11:14:56.124Z,2205.00
2019-03-06T11:15:56.175Z,2227.50
2019-03-06T11:16:56.088Z,2323.12
2019-03-06T11:17:56.105Z,1906.88
2019-03-06T11:18:56.258Z,1496.25
2019-03-06T11:19:56.068Z,1395.00
2019-03-06T11:20:56.061Z,1462.50
2019-03-06T11:21:56.040Z,1321.88
2019-03-06T11:22:56.074Z,1321.88
2019-03-06T11:23:56.044Z,1288.12
2019-03-06T11:24:56.007Z,1220.62
2019-03-06T11:25:55.998Z,1181.25
2019-03-06T11:26:55.989Z,1119.38
2019-03-06T11:27:55.975Z,1125.00
2019-03-06T11:28:55.988Z,1001.25
2019-03-06T11:29:55.952Z,933.75
2019-03-06T11:30:55.949Z,888.75
2019-03-06T11:31:55.939Z,866.25
2019-03-06T11:32:55.936Z,860.62
2019-03-06T11:33:55.950Z,832.50
2019-03-06T11:34:55.903Z,821.25
2019-03-06T11:35:55.892Z,838.12
2019-03-06T11:36:55.880Z,877.50
2019-03-06T11:37:55.875Z,950.62
2019-03-06T11:38:55.880Z,1057.50
2019-03-06T11:39:55.853Z,1316.25
2019-03-06T11:40:55.842Z,1215.00
2019-03-06T11:41:55.828Z,1406.25
2019-03-06T11:42:55.821Z,1783.12
2019-03-06T11:43:55.837Z,1968.75
2019-03-06T11:44:55.811Z,1918.12
2019-03-06T11:45:55.785Z,1558.12
2019-03-06T11:46:55.780Z,1490.62
2019-03-06T11:47:55.771Z,1288.12
2019-03-06T11:48:55.779Z,1226.25
2019-03-06T11:49:55.751Z,1153.12
2019-03-06T11:50:55.734Z,1096.88
2019-03-06T11:51:55.722Z,1006.88
2019-03-06T11:52:55.712Z,990.00
2019-03-06T11:53:55.728Z,1074.38
2019-03-06T11:54:55.694Z,1254.38
2019-03-06T11:55:55.687Z,1231.88
2019-03-06T11:56:55.668Z,1113.75
2019-03-06T11:57:55.656Z,1012.50
2019-03-06T11:58:55.672Z,900.00
2019-03-06T11:59:55.636Z,832.50
2019-03-06T12:00:55.635Z,793.12
2019-03-06T12:01:55.627Z,748.12
2019-03-06T12:02:55.609Z,736.88
2019-03-06T12:03:55.620Z,765.00
2019-03-06T12:04:55.588Z,894.38
2019-03-06T12:05:55.572Z,1051.88
2019-03-06T12:06:55.567Z,1074.38
2019-03-06T12:07:55.563Z,1096.88
2019-03-06T12:08:55.572Z,1068.75
2019-03-06T12:09:55.532Z,1130.62
2019-03-06T12:10:55.524Z,1192.50
2019-03-06T12:11:55.511Z,1288.12
2019-03-06T12:12:55.509Z,1366.88
2019-03-06T12:13:55.524Z,1231.88
2019-03-06T12:14:55.482Z,1288.12
2019-03-06T12:15:55.468Z,1203.75
2019-03-06T12:16:55.456Z,1192.50
2019-03-06T12:17:55.447Z,1147.50
2019-03-06T12:18:55.460Z,1147.50
2019-03-06T12:19:55.423Z,1023.75
2019-03-06T12:20:55.415Z,1023.75
2019-03-06T12:21:55.408Z,1046.25
2019-03-06T12:22:55.392Z,1029.38
2019-03-06T12:23:55.408Z,1035.00
2019-03-06T12:24:55.381Z,1057.50
2019-03-06T12:25:55.359Z,1074.38
2019-03-06T12:26:55.354Z,1057.50
2019-03-06T12:27:55.346Z,1063.12
2019-03-06T12:28:55.363Z,1035.00
2019-03-06T12:29:55.321Z,1018.12
2019-03-06T12:30:55.321Z,1006.88
2019-03-06T12:31:55.299Z,990.00
2019-03-06T12:32:55.290Z,978.75
2019-03-06T12:33:55.304Z,984.38
2019-03-06T12:34:55.272Z,1006.88
2019-03-06T12:35:55.263Z,1046.25
2019-03-06T12:36:55.265Z,1096.88
2019-03-06T12:37:55.235Z,1130.62
2019-03-06T12:38:55.253Z,1158.75
2019-03-06T12:39:55.220Z,1181.25
2019-03-06T12:40:55.211Z,1215.00
2019-03-06T12:41:55.203Z,1220.62
2019-03-06T12:42:55.209Z,1198.12
2019-03-06T12:43:55.213Z,1113.75
2019-03-06T12:44:55.173Z,1006.88
2019-03-06T12:45:55.151Z,933.75
2019-03-06T12:46:55.144Z,888.75
2019-03-06T12:47:56.040Z,849.38